PROFILE

 METAR AND TAF INFORMATION
ADDS - METARS form results

(0341 UTC 30 November 2021)
http://aviationweather.gov/metar/data/
 
OMDB 300300Z 23003KT CAVOK 22/15 Q1015 NOSIG
TAF OMDB 292300Z 3000/0106 15005KT 9999 FEW040 BECMG 3008/3010 36010KT PROB30 TEMPO 3009/3015 VRB18G30KT 3000 SHRA BLDU FEW040TCU BECMG 3014/3016 07007KT 

 AIRPORT MAP

 RUNWAY INFORMATION
Runway 12L Runway length 13124 ft Runway width 197 ft
Runway elevation 13 ft Runway displaced threshold 1312 ft Runway heading 122
Runway 30R Runway length 13124 ft Runway width 197 ft
Runway elevation 34 ft Runway displaced threshold 0 ft Runway heading 302
Runway 12R Runway length 13124 ft Runway width 151 ft
Runway elevation 13 ft Runway displaced threshold 394 ft Runway heading 121
Runway 30L Runway length 13124 ft Runway width 151 ft
Runway elevation 34 ft Runway displaced threshold 2953 ft Runway heading 301

 AIRPORT FREQUENCIES
Type ARR Name ARR Frequency 124.9 MHZ
Type ATIS Name ATIS Frequency 131.7 MHZ
Type DEP Name DEP Frequency 124.45 MHZ
Type GND Name GND Frequency 118.35 MHZ
Type TWR Name TWR Frequency 118.75 MHZ

 AIRPORT NEAR NAVIGATION AIDS
Type VOR-DME Name Dubai Frequency 115700 KHZ

Unable to connect to database [php_network_getaddresses: getaddrinfo failed: Temporary failure in name resolution]